Strona główna
METAR-TAF:

METAR-TAF

Lotnisko :

Carolina, Maranhão, Brazylia

Szerokość geograficzna: 07-19S, Długość geograficzna: 047-28W, wysokość: 183 m

Aktualna obserwacja pogody

Raport powstał 21 godziny i 48 minut temu, godzina 20:00 UTC
Wiatr 5 kt od wschód
Temperatura 34°C
Wilgotność 39%
Ciśnienie 1013 hPa
Widzialność 10 km lub więcej
Mało chmury na wysokości 4000 ft

METAR: SBCI 192000Z 10005KT 9999 FEW040 34/18 Q1013

czas: 14:48 (17:48 UTC)


TAF: brakujący

Obserwacja i prognoza pogody dla ponad 4000 lotnisk (raport METAR i TAF).

Dostępne stacje oznaczono żółtymi i czerwonymi punktami na mapie.

Najedź kursorem aby zobaczyć nazwę stacji.

Kliknij aby zobaczyć obserwacje i prognozy pogody.

Aby zmienić mapę: kliknij na zielony przycisk z czarnym krzyżykiem, aby powiększyć; na zielony przycisk z myślnikiem, aby pomniejszyć; na zielone strzałki, aby przejść do map sąsiednich.


METAR-TAF: